EGAE - Eglinton-Londonderr
Distance from station: E 5mi, 14km
Updated: 10/24/2017 2:20am
Few Clouds
Few Clouds
 Wind from SW
Wind: SW 20 mph , 31 km/h
Temperature: 57°F , 14°C
Dew Point: 52°F , 11°C
Humidity: 82%
Barometer: 29.71 inHg , 1006 hPa
Clouds: Few Clouds
Visibility: 6 miles , 10 km
Cloud details: Few Clouds 1200 ft
2017/10/24 09:20 EGAE 240920Z 23017KT 9999 FEW012 14/11 Q1006